sensor_id;sensor_type;location;lat;lon;timestamp;P1;durP1;ratioP1;P2;durP2;ratioP2
44248;SDS011;29923;48.718;9.272;2023-06-24T00:01:22;5.28;;;4.38;;
44248;SDS011;29923;48.718;9.272;2023-06-24T00:03:48;12.52;;;4.90;;
44248;SDS011;29923;48.718;9.272;2023-06-24T00:06:13;6.70;;;5.13;;
44248;SDS011;29923;48.718;9.272;2023-06-24T00:08:46;9.38;;;5.22;;
44248;SDS011;29923;48.718;9.272;2023-06-24T00:11:12;6.28;;;4.65;;
44248;SDS011;29923;48.718;9.272;2023-06-24T00:13:38;7.70;;;4.90;;
44248;SDS011;29923;48.718;9.272;2023-06-24T00:16:04;9.02;;;5.20;;
44248;SDS011;29923;48.718;9.272;2023-06-24T00:18:31;7.72;;;4.68;;
44248;SDS011;29923;48.718;9.272;2023-06-24T00:20:56;9.43;;;4.90;;
44248;SDS011;29923;48.718;9.272;2023-06-24T00:23:22;6.85;;;4.60;;
44248;SDS011;29923;48.718;9.272;2023-06-24T00:25:51;5.68;;;4.38;;
44248;SDS011;29923;48.718;9.272;2023-06-24T00:28:17;6.38;;;4.55;;
44248;SDS011;29923;48.718;9.272;2023-06-24T00:30:42;6.00;;;4.68;;
44248;SDS011;29923;48.718;9.272;2023-06-24T00:33:08;7.13;;;4.97;;
44248;SDS011;29923;48.718;9.272;2023-06-24T00:35:36;8.32;;;5.22;;
44248;SDS011;29923;48.718;9.272;2023-06-24T00:38:02;6.30;;;4.78;;
44248;SDS011;29923;48.718;9.272;2023-06-24T00:40:28;7.18;;;5.00;;
44248;SDS011;29923;48.718;9.272;2023-06-24T00:42:54;8.77;;;5.20;;
44248;SDS011;29923;48.718;9.272;2023-06-24T00:45:20;7.55;;;5.07;;
44248;SDS011;29923;48.718;9.272;2023-06-24T00:47:45;7.90;;;5.40;;
44248;SDS011;29923;48.718;9.272;2023-06-24T00:50:10;5.75;;;4.82;;
44248;SDS011;29923;48.718;9.272;2023-06-24T00:52:38;7.20;;;5.05;;
44248;SDS011;29923;48.718;9.272;2023-06-24T00:55:07;6.35;;;4.95;;
44248;SDS011;29923;48.718;9.272;2023-06-24T00:57:34;8.40;;;5.30;;
44248;SDS011;29923;48.718;9.272;2023-06-24T01:00:03;9.25;;;5.75;;
44248;SDS011;29923;48.718;9.272;2023-06-24T01:02:34;8.18;;;6.10;;
44248;SDS011;29923;48.718;9.272;2023-06-24T01:05:02;11.70;;;6.43;;
44248;SDS011;29923;48.718;9.272;2023-06-24T01:07:28;7.55;;;5.70;;
44248;SDS011;29923;48.718;9.272;2023-06-24T01:09:55;11.40;;;5.90;;
44248;SDS011;29923;48.718;9.272;2023-06-24T01:12:20;7.90;;;5.90;;
44248;SDS011;29923;48.718;9.272;2023-06-24T01:14:46;8.40;;;5.55;;
44248;SDS011;29923;48.718;9.272;2023-06-24T01:17:12;8.60;;;5.43;;
44248;SDS011;29923;48.718;9.272;2023-06-24T01:20:00;8.05;;;5.40;;
44248;SDS011;29923;48.718;9.272;2023-06-24T01:25:28;7.32;;;5.45;;
44248;SDS011;29923;48.718;9.272;2023-06-24T01:33:10;8.23;;;6.03;;
44248;SDS011;29923;48.718;9.272;2023-06-24T01:35:39;7.18;;;5.50;;
44248;SDS011;29923;48.718;9.272;2023-06-24T01:38:07;9.70;;;5.80;;
44248;SDS011;29923;48.718;9.272;2023-06-24T01:40:44;8.45;;;5.72;;
44248;SDS011;29923;48.718;9.272;2023-06-24T01:45:40;7.43;;;6.18;;
44248;SDS011;29923;48.718;9.272;2023-06-24T01:48:14;8.75;;;5.43;;
44248;SDS011;29923;48.718;9.272;2023-06-24T01:50:48;7.90;;;5.57;;
44248;SDS011;29923;48.718;9.272;2023-06-24T01:53:19;13.55;;;6.20;;
44248;SDS011;29923;48.718;9.272;2023-06-24T01:55:46;11.18;;;5.95;;
44248;SDS011;29923;48.718;9.272;2023-06-24T01:58:11;7.50;;;5.70;;
44248;SDS011;29923;48.718;9.272;2023-06-24T02:00:37;7.90;;;6.20;;
44248;SDS011;29923;48.718;9.272;2023-06-24T02:03:04;8.10;;;5.90;;
44248;SDS011;29923;48.718;9.272;2023-06-24T02:05:31;12.45;;;5.82;;
44248;SDS011;29923;48.718;9.272;2023-06-24T02:07:57;8.02;;;5.47;;
44248;SDS011;29923;48.718;9.272;2023-06-24T02:10:23;10.95;;;6.10;;
44248;SDS011;29923;48.718;9.272;2023-06-24T02:12:49;8.73;;;6.43;;
44248;SDS011;29923;48.718;9.272;2023-06-24T02:15:15;8.98;;;6.60;;
44248;SDS011;29923;48.718;9.272;2023-06-24T02:17:42;7.88;;;6.18;;
44248;SDS011;29923;48.718;9.272;2023-06-24T02:20:08;8.15;;;6.32;;
44248;SDS011;29923;48.718;9.272;2023-06-24T02:22:35;9.80;;;6.65;;
44248;SDS011;29923;48.718;9.272;2023-06-24T02:25:02;10.65;;;6.05;;
44248;SDS011;29923;48.718;9.272;2023-06-24T02:27:29;7.88;;;5.80;;
44248;SDS011;29923;48.718;9.272;2023-06-24T02:29:55;8.77;;;6.43;;
44248;SDS011;29923;48.718;9.272;2023-06-24T02:32:22;8.32;;;6.45;;
44248;SDS011;29923;48.718;9.272;2023-06-24T02:34:48;9.45;;;6.20;;
44248;SDS011;29923;48.718;9.272;2023-06-24T02:37:13;10.77;;;5.93;;
44248;SDS011;29923;48.718;9.272;2023-06-24T02:39:39;8.45;;;6.00;;
44248;SDS011;29923;48.718;9.272;2023-06-24T02:42:09;8.40;;;6.28;;
44248;SDS011;29923;48.718;9.272;2023-06-24T02:44:38;9.63;;;6.35;;
44248;SDS011;29923;48.718;9.272;2023-06-24T02:47:05;8.52;;;6.60;;
44248;SDS011;29923;48.718;9.272;2023-06-24T02:49:32;10.25;;;6.40;;
44248;SDS011;29923;48.718;9.272;2023-06-24T02:51:58;8.73;;;6.05;;
44248;SDS011;29923;48.718;9.272;2023-06-24T02:54:23;7.25;;;6.03;;
44248;SDS011;29923;48.718;9.272;2023-06-24T02:56:49;9.23;;;6.05;;
44248;SDS011;29923;48.718;9.272;2023-06-24T02:59:14;7.88;;;6.68;;
44248;SDS011;29923;48.718;9.272;2023-06-24T03:01:40;8.57;;;6.22;;
44248;SDS011;29923;48.718;9.272;2023-06-24T03:04:10;8.90;;;6.35;;
44248;SDS011;29923;48.718;9.272;2023-06-24T03:06:35;9.32;;;6.50;;
44248;SDS011;29923;48.718;9.272;2023-06-24T03:09:02;10.95;;;6.70;;
44248;SDS011;29923;48.718;9.272;2023-06-24T03:11:28;8.30;;;6.38;;
44248;SDS011;29923;48.718;9.272;2023-06-24T03:13:54;9.63;;;7.47;;
44248;SDS011;29923;48.718;9.272;2023-06-24T03:16:19;9.25;;;6.28;;
44248;SDS011;29923;48.718;9.272;2023-06-24T03:18:45;9.48;;;6.88;;
44248;SDS011;29923;48.718;9.272;2023-06-24T03:21:10;10.07;;;6.68;;
44248;SDS011;29923;48.718;9.272;2023-06-24T03:23:36;11.57;;;7.35;;
44248;SDS011;29923;48.718;9.272;2023-06-24T03:26:01;14.00;;;6.78;;
44248;SDS011;29923;48.718;9.272;2023-06-24T03:28:29;9.10;;;7.00;;
44248;SDS011;29923;48.718;9.272;2023-06-24T03:30:55;8.75;;;6.38;;
44248;SDS011;29923;48.718;9.272;2023-06-24T03:33:21;10.63;;;6.78;;
44248;SDS011;29923;48.718;9.272;2023-06-24T03:35:46;9.88;;;6.80;;
44248;SDS011;29923;48.718;9.272;2023-06-24T03:38:12;8.73;;;6.93;;
44248;SDS011;29923;48.718;9.272;2023-06-24T03:40:37;9.73;;;6.95;;
44248;SDS011;29923;48.718;9.272;2023-06-24T03:43:03;8.95;;;6.85;;
44248;SDS011;29923;48.718;9.272;2023-06-24T03:45:28;10.32;;;6.80;;
44248;SDS011;29923;48.718;9.272;2023-06-24T03:47:53;13.13;;;6.75;;
44248;SDS011;29923;48.718;9.272;2023-06-24T03:50:19;9.10;;;7.07;;
44248;SDS011;29923;48.718;9.272;2023-06-24T03:52:44;8.70;;;6.30;;
44248;SDS011;29923;48.718;9.272;2023-06-24T03:55:10;8.77;;;5.93;;
44248;SDS011;29923;48.718;9.272;2023-06-24T03:57:36;11.18;;;6.82;;
44248;SDS011;29923;48.718;9.272;2023-06-24T04:00:01;9.07;;;6.47;;
44248;SDS011;29923;48.718;9.272;2023-06-24T04:02:32;9.43;;;6.57;;
44248;SDS011;29923;48.718;9.272;2023-06-24T04:04:57;11.02;;;6.72;;
44248;SDS011;29923;48.718;9.272;2023-06-24T04:07:23;7.60;;;6.18;;
44248;SDS011;29923;48.718;9.272;2023-06-24T04:09:55;9.80;;;6.97;;
44248;SDS011;29923;48.718;9.272;2023-06-24T04:12:21;9.80;;;6.70;;
44248;SDS011;29923;48.718;9.272;2023-06-24T04:14:47;11.85;;;6.65;;
44248;SDS011;29923;48.718;9.272;2023-06-24T04:17:12;10.63;;;6.78;;
44248;SDS011;29923;48.718;9.272;2023-06-24T04:19:37;7.88;;;6.10;;
44248;SDS011;29923;48.718;9.272;2023-06-24T04:22:04;7.95;;;6.55;;
44248;SDS011;29923;48.718;9.272;2023-06-24T04:24:29;10.00;;;6.53;;
44248;SDS011;29923;48.718;9.272;2023-06-24T04:26:55;8.88;;;6.80;;
44248;SDS011;29923;48.718;9.272;2023-06-24T04:29:20;10.40;;;7.03;;
44248;SDS011;29923;48.718;9.272;2023-06-24T04:31:45;10.25;;;5.93;;
44248;SDS011;29923;48.718;9.272;2023-06-24T04:34:11;10.80;;;6.55;;
44248;SDS011;29923;48.718;9.272;2023-06-24T04:36:36;8.52;;;5.63;;
44248;SDS011;29923;48.718;9.272;2023-06-24T04:39:01;6.70;;;5.88;;
44248;SDS011;29923;48.718;9.272;2023-06-24T04:41:27;7.00;;;5.78;;
44248;SDS011;29923;48.718;9.272;2023-06-24T04:43:52;11.15;;;5.57;;
44248;SDS011;29923;48.718;9.272;2023-06-24T04:46:18;8.63;;;6.03;;
44248;SDS011;29923;48.718;9.272;2023-06-24T04:48:44;8.90;;;5.15;;
44248;SDS011;29923;48.718;9.272;2023-06-24T04:51:09;11.55;;;5.68;;
44248;SDS011;29923;48.718;9.272;2023-06-24T04:53:35;7.65;;;5.38;;
44248;SDS011;29923;48.718;9.272;2023-06-24T04:56:00;6.30;;;4.95;;
44248;SDS011;29923;48.718;9.272;2023-06-24T04:58:26;7.90;;;5.40;;
44248;SDS011;29923;48.718;9.272;2023-06-24T05:00:51;7.80;;;5.22;;
44248;SDS011;29923;48.718;9.272;2023-06-24T05:03:16;9.50;;;5.78;;
44248;SDS011;29923;48.718;9.272;2023-06-24T05:05:42;12.73;;;5.55;;
44248;SDS011;29923;48.718;9.272;2023-06-24T05:08:07;7.53;;;5.38;;
44248;SDS011;29923;48.718;9.272;2023-06-24T05:10:33;9.82;;;5.28;;
44248;SDS011;29923;48.718;9.272;2023-06-24T05:12:58;11.52;;;5.65;;
44248;SDS011;29923;48.718;9.272;2023-06-24T05:15:23;14.15;;;5.07;;
44248;SDS011;29923;48.718;9.272;2023-06-24T05:17:49;6.28;;;4.93;;
44248;SDS011;29923;48.718;9.272;2023-06-24T05:20:14;14.63;;;6.38;;
44248;SDS011;29923;48.718;9.272;2023-06-24T05:22:39;7.32;;;5.50;;
44248;SDS011;29923;48.718;9.272;2023-06-24T05:25:05;8.07;;;5.63;;
44248;SDS011;29923;48.718;9.272;2023-06-24T05:27:30;7.55;;;5.40;;
44248;SDS011;29923;48.718;9.272;2023-06-24T05:29:56;8.43;;;6.38;;
44248;SDS011;29923;48.718;9.272;2023-06-24T05:32:21;15.65;;;6.22;;
44248;SDS011;29923;48.718;9.272;2023-06-24T05:34:47;10.23;;;5.85;;
44248;SDS011;29923;48.718;9.272;2023-06-24T05:37:12;9.88;;;5.70;;
44248;SDS011;29923;48.718;9.272;2023-06-24T05:39:37;9.38;;;6.07;;
44248;SDS011;29923;48.718;9.272;2023-06-24T05:42:03;13.77;;;6.38;;
44248;SDS011;29923;48.718;9.272;2023-06-24T05:44:28;9.77;;;6.03;;
44248;SDS011;29923;48.718;9.272;2023-06-24T05:46:54;10.45;;;6.47;;
44248;SDS011;29923;48.718;9.272;2023-06-24T05:49:19;8.52;;;6.10;;
44248;SDS011;29923;48.718;9.272;2023-06-24T05:51:45;12.88;;;6.47;;
44248;SDS011;29923;48.718;9.272;2023-06-24T05:54:10;10.57;;;6.72;;
44248;SDS011;29923;48.718;9.272;2023-06-24T05:56:35;8.40;;;6.32;;
44248;SDS011;29923;48.718;9.272;2023-06-24T05:59:01;9.10;;;6.35;;
44248;SDS011;29923;48.718;9.272;2023-06-24T06:01:27;11.98;;;6.15;;
44248;SDS011;29923;48.718;9.272;2023-06-24T06:03:52;10.07;;;5.78;;
44248;SDS011;29923;48.718;9.272;2023-06-24T06:06:17;9.40;;;6.60;;
44248;SDS011;29923;48.718;9.272;2023-06-24T06:08:43;7.13;;;5.88;;
44248;SDS011;29923;48.718;9.272;2023-06-24T06:11:08;8.23;;;5.88;;
44248;SDS011;29923;48.718;9.272;2023-06-24T06:13:33;12.55;;;6.80;;
44248;SDS011;29923;48.718;9.272;2023-06-24T06:15:59;13.93;;;6.03;;
44248;SDS011;29923;48.718;9.272;2023-06-24T06:18:24;10.18;;;6.35;;
44248;SDS011;29923;48.718;9.272;2023-06-24T06:20:50;9.25;;;5.82;;
44248;SDS011;29923;48.718;9.272;2023-06-24T06:23:15;9.77;;;6.00;;
44248;SDS011;29923;48.718;9.272;2023-06-24T06:25:41;10.70;;;5.75;;
44248;SDS011;29923;48.718;9.272;2023-06-24T06:28:06;12.77;;;5.90;;
44248;SDS011;29923;48.718;9.272;2023-06-24T06:30:31;6.95;;;5.57;;
44248;SDS011;29923;48.718;9.272;2023-06-24T06:32:57;14.35;;;6.05;;
44248;SDS011;29923;48.718;9.272;2023-06-24T06:35:22;8.25;;;6.30;;
44248;SDS011;29923;48.718;9.272;2023-06-24T06:37:47;7.97;;;5.78;;
44248;SDS011;29923;48.718;9.272;2023-06-24T06:40:17;8.02;;;5.40;;
44248;SDS011;29923;48.718;9.272;2023-06-24T06:42:46;7.45;;;5.60;;
44248;SDS011;29923;48.718;9.272;2023-06-24T06:45:12;8.57;;;5.75;;
44248;SDS011;29923;48.718;9.272;2023-06-24T06:47:37;8.20;;;4.93;;
44248;SDS011;29923;48.718;9.272;2023-06-24T06:50:03;7.07;;;5.00;;
44248;SDS011;29923;48.718;9.272;2023-06-24T06:52:28;7.32;;;4.70;;
44248;SDS011;29923;48.718;9.272;2023-06-24T06:54:54;9.77;;;4.70;;
44248;SDS011;29923;48.718;9.272;2023-06-24T06:57:19;6.13;;;4.57;;
44248;SDS011;29923;48.718;9.272;2023-06-24T06:59:45;6.15;;;4.70;;
44248;SDS011;29923;48.718;9.272;2023-06-24T07:02:10;5.78;;;4.35;;
44248;SDS011;29923;48.718;9.272;2023-06-24T07:04:36;6.65;;;4.13;;
44248;SDS011;29923;48.718;9.272;2023-06-24T07:07:01;10.18;;;4.47;;
44248;SDS011;29923;48.718;9.272;2023-06-24T07:09:27;7.00;;;4.90;;
44248;SDS011;29923;48.718;9.272;2023-06-24T07:11:53;7.38;;;4.30;;
44248;SDS011;29923;48.718;9.272;2023-06-24T07:14:18;3.95;;;3.50;;
44248;SDS011;29923;48.718;9.272;2023-06-24T07:16:43;4.20;;;3.58;;
44248;SDS011;29923;48.718;9.272;2023-06-24T07:19:09;7.18;;;3.75;;
44248;SDS011;29923;48.718;9.272;2023-06-24T07:21:34;8.65;;;4.05;;
44248;SDS011;29923;48.718;9.272;2023-06-24T07:23:59;13.30;;;3.60;;
44248;SDS011;29923;48.718;9.272;2023-06-24T07:26:25;4.10;;;3.70;;
44248;SDS011;29923;48.718;9.272;2023-06-24T07:28:53;7.97;;;3.65;;
44248;SDS011;29923;48.718;9.272;2023-06-24T07:31:19;6.05;;;3.40;;
44248;SDS011;29923;48.718;9.272;2023-06-24T07:33:44;7.05;;;3.72;;
44248;SDS011;29923;48.718;9.272;2023-06-24T07:36:09;10.32;;;3.42;;
44248;SDS011;29923;48.718;9.272;2023-06-24T07:38:35;11.35;;;3.83;;
44248;SDS011;29923;48.718;9.272;2023-06-24T07:41:00;6.45;;;3.45;;
44248;SDS011;29923;48.718;9.272;2023-06-24T07:43:25;3.92;;;2.85;;
44248;SDS011;29923;48.718;9.272;2023-06-24T07:45:51;4.72;;;3.58;;
44248;SDS011;29923;48.718;9.272;2023-06-24T07:48:16;6.03;;;3.47;;
44248;SDS011;29923;48.718;9.272;2023-06-24T07:50:41;5.70;;;3.22;;
44248;SDS011;29923;48.718;9.272;2023-06-24T07:53:07;7.78;;;3.20;;
44248;SDS011;29923;48.718;9.272;2023-06-24T07:55:32;5.80;;;2.88;;
44248;SDS011;29923;48.718;9.272;2023-06-24T07:57:57;4.57;;;3.47;;
44248;SDS011;29923;48.718;9.272;2023-06-24T08:00:27;5.13;;;3.03;;
44248;SDS011;29923;48.718;9.272;2023-06-24T08:02:53;7.25;;;3.00;;
44248;SDS011;29923;48.718;9.272;2023-06-24T08:05:20;9.23;;;3.42;;
44248;SDS011;29923;48.718;9.272;2023-06-24T08:07:45;5.88;;;3.90;;
44248;SDS011;29923;48.718;9.272;2023-06-24T08:10:11;3.85;;;2.72;;
44248;SDS011;29923;48.718;9.272;2023-06-24T08:12:36;3.72;;;3.15;;
44248;SDS011;29923;48.718;9.272;2023-06-24T08:15:02;5.97;;;3.53;;
44248;SDS011;29923;48.718;9.272;2023-06-24T08:17:27;6.13;;;3.35;;
44248;SDS011;29923;48.718;9.272;2023-06-24T08:19:53;5.57;;;3.00;;
44248;SDS011;29923;48.718;9.272;2023-06-24T08:22:18;4.75;;;3.50;;
44248;SDS011;29923;48.718;9.272;2023-06-24T08:24:43;5.78;;;3.40;;
44248;SDS011;29923;48.718;9.272;2023-06-24T08:27:09;6.75;;;3.67;;
44248;SDS011;29923;48.718;9.272;2023-06-24T08:29:34;6.95;;;4.35;;
44248;SDS011;29923;48.718;9.272;2023-06-24T08:32:00;5.53;;;3.90;;
44248;SDS011;29923;48.718;9.272;2023-06-24T08:34:25;6.72;;;3.67;;
44248;SDS011;29923;48.718;9.272;2023-06-24T08:36:50;4.05;;;3.15;;
44248;SDS011;29923;48.718;9.272;2023-06-24T08:39:16;8.88;;;3.22;;
44248;SDS011;29923;48.718;9.272;2023-06-24T08:41:41;5.13;;;3.03;;
44248;SDS011;29923;48.718;9.272;2023-06-24T08:44:06;19.00;;;3.63;;
44248;SDS011;29923;48.718;9.272;2023-06-24T08:46:32;4.43;;;3.10;;
44248;SDS011;29923;48.718;9.272;2023-06-24T08:49:07;5.57;;;2.90;;
44248;SDS011;29923;48.718;9.272;2023-06-24T08:51:42;4.95;;;3.28;;
44248;SDS011;29923;48.718;9.272;2023-06-24T08:54:09;5.28;;;3.45;;
44248;SDS011;29923;48.718;9.272;2023-06-24T08:56:35;7.13;;;3.00;;
44248;SDS011;29923;48.718;9.272;2023-06-24T08:59:03;4.68;;;3.30;;
44248;SDS011;29923;48.718;9.272;2023-06-24T09:01:30;10.32;;;3.25;;
44248;SDS011;29923;48.718;9.272;2023-06-24T09:03:55;4.93;;;3.45;;
44248;SDS011;29923;48.718;9.272;2023-06-24T09:06:21;5.45;;;3.20;;
44248;SDS011;29923;48.718;9.272;2023-06-24T09:08:53;6.97;;;3.17;;
44248;SDS011;29923;48.718;9.272;2023-06-24T09:11:26;6.93;;;3.20;;
44248;SDS011;29923;48.718;9.272;2023-06-24T09:13:58;3.80;;;3.10;;
44248;SDS011;29923;48.718;9.272;2023-06-24T09:16:25;7.17;;;2.63;;
44248;SDS011;29923;48.718;9.272;2023-06-24T09:18:51;4.20;;;3.00;;
44248;SDS011;29923;48.718;9.272;2023-06-24T09:21:24;3.50;;;2.72;;
44248;SDS011;29923;48.718;9.272;2023-06-24T09:23:52;4.00;;;2.72;;
44248;SDS011;29923;48.718;9.272;2023-06-24T09:26:17;5.82;;;3.15;;
44248;SDS011;29923;48.718;9.272;2023-06-24T09:28:47;4.00;;;3.45;;
44248;SDS011;29923;48.718;9.272;2023-06-24T09:31:14;5.28;;;3.30;;
44248;SDS011;29923;48.718;9.272;2023-06-24T09:33:39;7.95;;;3.30;;
44248;SDS011;29923;48.718;9.272;2023-06-24T09:36:05;3.45;;;2.83;;
44248;SDS011;29923;48.718;9.272;2023-06-24T09:38:34;5.38;;;3.10;;
44248;SDS011;29923;48.718;9.272;2023-06-24T09:41:02;3.10;;;2.70;;
44248;SDS011;29923;48.718;9.272;2023-06-24T09:43:29;5.80;;;3.63;;
44248;SDS011;29923;48.718;9.272;2023-06-24T09:45:55;5.25;;;3.03;;
44248;SDS011;29923;48.718;9.272;2023-06-24T09:48:20;8.23;;;2.95;;
44248;SDS011;29923;48.718;9.272;2023-06-24T09:50:46;4.18;;;3.00;;
44248;SDS011;29923;48.718;9.272;2023-06-24T09:53:11;5.55;;;3.00;;
44248;SDS011;29923;48.718;9.272;2023-06-24T09:55:37;4.43;;;3.45;;
44248;SDS011;29923;48.718;9.272;2023-06-24T09:58:08;3.92;;;2.95;;
44248;SDS011;29923;48.718;9.272;2023-06-24T10:00:34;4.22;;;3.03;;
44248;SDS011;29923;48.718;9.272;2023-06-24T10:02:59;6.47;;;2.88;;
44248;SDS011;29923;48.718;9.272;2023-06-24T10:05:25;6.38;;;2.65;;
44248;SDS011;29923;48.718;9.272;2023-06-24T10:07:50;4.50;;;3.00;;
44248;SDS011;29923;48.718;9.272;2023-06-24T10:10:16;3.45;;;3.15;;
44248;SDS011;29923;48.718;9.272;2023-06-24T10:12:42;5.00;;;2.85;;
44248;SDS011;29923;48.718;9.272;2023-06-24T10:15:08;6.20;;;2.63;;
44248;SDS011;29923;48.718;9.272;2023-06-24T10:17:33;4.95;;;2.95;;
44248;SDS011;29923;48.718;9.272;2023-06-24T10:20:00;5.80;;;2.70;;
44248;SDS011;29923;48.718;9.272;2023-06-24T10:22:29;4.97;;;2.70;;
44248;SDS011;29923;48.718;9.272;2023-06-24T10:24:56;3.20;;;2.63;;
44248;SDS011;29923;48.718;9.272;2023-06-24T10:27:24;2.90;;;2.58;;
44248;SDS011;29923;48.718;9.272;2023-06-24T10:29:52;4.65;;;2.50;;
44248;SDS011;29923;48.718;9.272;2023-06-24T10:32:18;3.78;;;2.75;;
44248;SDS011;29923;48.718;9.272;2023-06-24T10:34:46;5.63;;;2.78;;
44248;SDS011;29923;48.718;9.272;2023-06-24T10:47:25;6.03;;;2.63;;
44248;SDS011;29923;48.718;9.272;2023-06-24T10:49:51;3.80;;;2.85;;
44248;SDS011;29923;48.718;9.272;2023-06-24T10:52:18;6.63;;;2.78;;
44248;SDS011;29923;48.718;9.272;2023-06-24T10:54:45;4.43;;;2.65;;
44248;SDS011;29923;48.718;9.272;2023-06-24T10:57:11;3.97;;;3.05;;
44248;SDS011;29923;48.718;9.272;2023-06-24T10:59:40;3.97;;;3.00;;
44248;SDS011;29923;48.718;9.272;2023-06-24T11:02:09;4.03;;;2.70;;
44248;SDS011;29923;48.718;9.272;2023-06-24T11:04:48;4.28;;;2.65;;
44248;SDS011;29923;48.718;9.272;2023-06-24T11:07:18;3.00;;;2.65;;
44248;SDS011;29923;48.718;9.272;2023-06-24T11:12:19;3.53;;;2.65;;
44248;SDS011;29923;48.718;9.272;2023-06-24T11:14:48;2.65;;;2.45;;
44248;SDS011;29923;48.718;9.272;2023-06-24T11:17:14;4.72;;;2.85;;
44248;SDS011;29923;48.718;9.272;2023-06-24T11:19:39;4.90;;;2.85;;
44248;SDS011;29923;48.718;9.272;2023-06-24T11:22:06;3.35;;;2.60;;
44248;SDS011;29923;48.718;9.272;2023-06-24T11:24:32;4.30;;;2.53;;
44248;SDS011;29923;48.718;9.272;2023-06-24T11:26:58;3.33;;;2.90;;
44248;SDS011;29923;48.718;9.272;2023-06-24T11:29:23;4.05;;;2.83;;
44248;SDS011;29923;48.718;9.272;2023-06-24T11:31:49;8.68;;;3.35;;
44248;SDS011;29923;48.718;9.272;2023-06-24T11:34:15;4.93;;;3.45;;
44248;SDS011;29923;48.718;9.272;2023-06-24T11:36:41;5.22;;;2.35;;
44248;SDS011;29923;48.718;9.272;2023-06-24T11:39:06;7.63;;;2.58;;
44248;SDS011;29923;48.718;9.272;2023-06-24T11:41:31;4.22;;;3.08;;
44248;SDS011;29923;48.718;9.272;2023-06-24T11:43:57;5.32;;;2.80;;
44248;SDS011;29923;48.718;9.272;2023-06-24T11:46:24;6.25;;;2.80;;
44248;SDS011;29923;48.718;9.272;2023-06-24T11:49:05;3.78;;;2.50;;
44248;SDS011;29923;48.718;9.272;2023-06-24T11:51:31;3.22;;;2.78;;
44248;SDS011;29923;48.718;9.272;2023-06-24T11:54:00;2.72;;;2.50;;
44248;SDS011;29923;48.718;9.272;2023-06-24T11:56:36;4.82;;;2.78;;
44248;SDS011;29923;48.718;9.272;2023-06-24T11:59:05;5.43;;;2.53;;
44248;SDS011;29923;48.718;9.272;2023-06-24T12:01:34;4.50;;;3.10;;
44248;SDS011;29923;48.718;9.272;2023-06-24T12:04:09;4.43;;;2.95;;
44248;SDS011;29923;48.718;9.272;2023-06-24T12:06:35;6.22;;;2.70;;
44248;SDS011;29923;48.718;9.272;2023-06-24T12:09:01;3.70;;;2.45;;
44248;SDS011;29923;48.718;9.272;2023-06-24T12:11:26;3.42;;;2.65;;
44248;SDS011;29923;48.718;9.272;2023-06-24T12:13:51;3.03;;;2.33;;
44248;SDS011;29923;48.718;9.272;2023-06-24T12:16:17;3.22;;;2.40;;
44248;SDS011;29923;48.718;9.272;2023-06-24T12:18:43;2.90;;;2.60;;
44248;SDS011;29923;48.718;9.272;2023-06-24T12:21:08;7.28;;;2.75;;
44248;SDS011;29923;48.718;9.272;2023-06-24T12:23:34;3.08;;;2.50;;
44248;SDS011;29923;48.718;9.272;2023-06-24T12:26:00;2.92;;;2.55;;
44248;SDS011;29923;48.718;9.272;2023-06-24T12:28:25;5.70;;;2.65;;
44248;SDS011;29923;48.718;9.272;2023-06-24T12:30:50;2.97;;;2.50;;
44248;SDS011;29923;48.718;9.272;2023-06-24T12:33:16;5.32;;;2.58;;
44248;SDS011;29923;48.718;9.272;2023-06-24T12:35:44;2.60;;;2.35;;
44248;SDS011;29923;48.718;9.272;2023-06-24T12:38:09;5.32;;;2.92;;
44248;SDS011;29923;48.718;9.272;2023-06-24T12:40:34;3.08;;;2.45;;
44248;SDS011;29923;48.718;9.272;2023-06-24T12:43:00;8.90;;;2.60;;
44248;SDS011;29923;48.718;9.272;2023-06-24T12:45:25;3.50;;;2.50;;
44248;SDS011;29923;48.718;9.272;2023-06-24T12:47:51;3.58;;;2.65;;
44248;SDS011;29923;48.718;9.272;2023-06-24T12:50:17;2.97;;;2.30;;
44248;SDS011;29923;48.718;9.272;2023-06-24T12:52:42;3.28;;;2.40;;
44248;SDS011;29923;48.718;9.272;2023-06-24T12:55:07;3.47;;;2.38;;
44248;SDS011;29923;48.718;9.272;2023-06-24T12:57:33;3.70;;;2.83;;
44248;SDS011;29923;48.718;9.272;2023-06-24T12:59:58;4.45;;;2.45;;
44248;SDS011;29923;48.718;9.272;2023-06-24T13:02:24;4.45;;;3.00;;
44248;SDS011;29923;48.718;9.272;2023-06-24T13:04:49;3.47;;;2.55;;
44248;SDS011;29923;48.718;9.272;2023-06-24T13:07:14;3.67;;;2.92;;
44248;SDS011;29923;48.718;9.272;2023-06-24T13:09:40;4.20;;;2.80;;
44248;SDS011;29923;48.718;9.272;2023-06-24T13:12:05;3.50;;;2.40;;
44248;SDS011;29923;48.718;9.272;2023-06-24T13:14:31;3.63;;;2.50;;
44248;SDS011;29923;48.718;9.272;2023-06-24T13:16:56;3.10;;;2.80;;
44248;SDS011;29923;48.718;9.272;2023-06-24T13:19:21;3.53;;;2.65;;
44248;SDS011;29923;48.718;9.272;2023-06-24T13:21:47;7.70;;;4.07;;
44248;SDS011;29923;48.718;9.272;2023-06-24T13:24:12;4.72;;;2.75;;
44248;SDS011;29923;48.718;9.272;2023-06-24T13:26:37;2.95;;;2.45;;
44248;SDS011;29923;48.718;9.272;2023-06-24T13:29:03;2.88;;;2.42;;
44248;SDS011;29923;48.718;9.272;2023-06-24T13:31:29;5.25;;;2.65;;
44248;SDS011;29923;48.718;9.272;2023-06-24T13:33:54;4.57;;;2.83;;
44248;SDS011;29923;48.718;9.272;2023-06-24T13:36:32;5.82;;;2.70;;
44248;SDS011;29923;48.718;9.272;2023-06-24T13:39:02;4.05;;;2.30;;
44248;SDS011;29923;48.718;9.272;2023-06-24T13:41:28;3.83;;;2.83;;
44248;SDS011;29923;48.718;9.272;2023-06-24T13:43:56;3.33;;;2.50;;
44248;SDS011;29923;48.718;9.272;2023-06-24T13:46:22;2.60;;;2.40;;
44248;SDS011;29923;48.718;9.272;2023-06-24T13:48:48;3.17;;;2.40;;
44248;SDS011;29923;48.718;9.272;2023-06-24T13:51:14;4.07;;;2.50;;
44248;SDS011;29923;48.718;9.272;2023-06-24T13:53:40;4.07;;;2.40;;
44248;SDS011;29923;48.718;9.272;2023-06-24T13:56:05;4.03;;;2.83;;
44248;SDS011;29923;48.718;9.272;2023-06-24T13:58:31;6.22;;;2.60;;
44248;SDS011;29923;48.718;9.272;2023-06-24T14:00:56;3.80;;;2.90;;
44248;SDS011;29923;48.718;9.272;2023-06-24T14:03:21;3.63;;;2.78;;
44248;SDS011;29923;48.718;9.272;2023-06-24T14:05:47;3.97;;;2.53;;
44248;SDS011;29923;48.718;9.272;2023-06-24T14:08:12;3.40;;;2.45;;
44248;SDS011;29923;48.718;9.272;2023-06-24T14:10:37;3.22;;;2.60;;
44248;SDS011;29923;48.718;9.272;2023-06-24T14:13:03;4.10;;;2.53;;
44248;SDS011;29923;48.718;9.272;2023-06-24T14:15:28;3.33;;;2.58;;
44248;SDS011;29923;48.718;9.272;2023-06-24T14:17:53;3.63;;;2.72;;
44248;SDS011;29923;48.718;9.272;2023-06-24T14:20:19;5.18;;;2.70;;
44248;SDS011;29923;48.718;9.272;2023-06-24T14:22:44;6.85;;;2.22;;
44248;SDS011;29923;48.718;9.272;2023-06-24T14:25:10;3.75;;;2.47;;
44248;SDS011;29923;48.718;9.272;2023-06-24T14:27:36;4.97;;;2.80;;
44248;SDS011;29923;48.718;9.272;2023-06-24T14:30:01;3.35;;;2.15;;
44248;SDS011;29923;48.718;9.272;2023-06-24T14:32:27;2.60;;;2.38;;
44248;SDS011;29923;48.718;9.272;2023-06-24T14:34:52;3.70;;;2.60;;
44248;SDS011;29923;48.718;9.272;2023-06-24T14:37:17;3.03;;;2.58;;
44248;SDS011;29923;48.718;9.272;2023-06-24T14:39:42;3.13;;;2.33;;
44248;SDS011;29923;48.718;9.272;2023-06-24T14:42:08;2.97;;;2.20;;
44248;SDS011;29923;48.718;9.272;2023-06-24T14:44:33;2.97;;;2.22;;
44248;SDS011;29923;48.718;9.272;2023-06-24T14:46:58;3.85;;;2.88;;
44248;SDS011;29923;48.718;9.272;2023-06-24T14:49:24;3.70;;;3.05;;
44248;SDS011;29923;48.718;9.272;2023-06-24T14:51:49;3.58;;;2.78;;
44248;SDS011;29923;48.718;9.272;2023-06-24T14:54:14;3.08;;;2.60;;
44248;SDS011;29923;48.718;9.272;2023-06-24T14:56:40;3.30;;;2.53;;
44248;SDS011;29923;48.718;9.272;2023-06-24T14:59:05;3.20;;;2.70;;
44248;SDS011;29923;48.718;9.272;2023-06-24T15:01:30;4.35;;;2.63;;
44248;SDS011;29923;48.718;9.272;2023-06-24T15:03:56;3.47;;;2.50;;